»·PEaware :: N352QN KEUG-KBFI

N352QN :: KEUG-KBFI

FLIGHT INFORMATION

Flight Status: Arrived
Operator: Privately registered:
United States
More flights under this callsign
Pilot: Jacob H. (10561)
Aircraft: Unknown
(EPIC)
More flights by this aircraft type
Origin: KEUG Mahlon Sweet
United States
Destination: KBFI Boeing Field/King Co Intl
United States
More flights between these airports :: More routes between these airports
Route: +EUG9 MINNE UBG J126 OLM OLM2
File this flight plan on PilotEdge
Remarks:
Altitude:
(Current/Filed)
23,000ft
Speed:
(Current/Filed)
265kts
Departed: 22-Dec-17 03:39 PM
Arrived: 22-Dec-17 04:37 PM
Distance/Time
Traveled:
208nm/0:57
Distance/Time
To Go:
Arrived

Flight Plot

Page will automatically refresh every two minutes.

Flight plan parsing failed; only flown route is shown


Map Options




Map Legend


Flown Route
Filed Route
Departure Airport
Arrival Airport
Navaid (VOR, NDB)
Fix

Horizontal Profiles

Position Reports

Time Latitude Longitude Heading Altitude Ground
Speed
22-Dec-17 15:16 44.116248 -123.215535 222 368ft 0kts
22-Dec-17 15:17 44.116248 -123.215535 222 368ft 0kts
22-Dec-17 15:18 44.116248 -123.215535 222 368ft 0kts
22-Dec-17 15:19 44.116248 -123.215535 222 368ft 0kts
22-Dec-17 15:20 44.116248 -123.215535 222 368ft 0kts
22-Dec-17 15:21 44.116248 -123.215535 222 368ft 0kts
22-Dec-17 15:22 44.116248 -123.215535 222 368ft 0kts
22-Dec-17 15:23 44.116248 -123.215535 222 368ft 0kts
22-Dec-17 15:24 44.116248 -123.215535 222 368ft 0kts
22-Dec-17 15:25 44.116248 -123.215535 222 368ft 0kts
22-Dec-17 15:26 44.116248 -123.215535 222 368ft 0kts
22-Dec-17 15:27 44.116248 -123.215535 222 368ft 0kts
22-Dec-17 15:28 44.116248 -123.215535 222 368ft 0kts
22-Dec-17 15:29 44.116247 -123.215536 222 368ft 0kts
22-Dec-17 15:30 44.116247 -123.215536 222 368ft 0kts
22-Dec-17 15:31 44.116247 -123.215536 222 368ft 0kts
22-Dec-17 15:32 44.115549 -123.216622 249 368ft 0kts
22-Dec-17 15:33 44.121521 -123.217005 359 365ft 30kts
22-Dec-17 15:34 44.125897 -123.217035 359 361ft 1kts
22-Dec-17 15:35 44.134507 -123.216602 8 355ft 27kts
22-Dec-17 15:36 44.135087 -123.216675 313 355ft 0kts
22-Dec-17 15:37 44.135087 -123.216675 313 355ft 0kts
22-Dec-17 15:38 44.135087 -123.216675 313 355ft 0kts
22-Dec-17 15:39 44.135087 -123.216675 313 355ft 0kts
22-Dec-17 15:40 44.135087 -123.216675 313 355ft 0kts
22-Dec-17 15:41 44.135087 -123.216675 313 355ft 0kts
22-Dec-17 15:42 44.135087 -123.216675 313 355ft 0kts
22-Dec-17 15:43 44.135087 -123.216675 313 355ft 0kts
22-Dec-17 15:44 44.135087 -123.216675 313 355ft 0kts
22-Dec-17 15:45 44.129850 -123.219044 178 371ft 112kts
22-Dec-17 15:46 44.085083 -123.217618 178 2486ft 184kts
22-Dec-17 15:47 44.035603 -123.216168 178 5893ft 186kts
22-Dec-17 15:48 44.008835 -123.255651 306 8623ft 203kts
22-Dec-17 15:49 44.069868 -123.283648 345 9117ft 277kts
22-Dec-17 15:50 44.145210 -123.263085 8 11470ft 286kts
22-Dec-17 15:51 44.222033 -123.241039 3 13956ft 282kts
22-Dec-17 15:52 44.295632 -123.221226 1 16339ft 268kts
22-Dec-17 15:53 44.367424 -123.202005 0 18332ft 270kts
22-Dec-17 15:54 44.441092 -123.182189 0 19848ft 277kts
22-Dec-17 15:55 44.515306 -123.162158 0 21057ft 283kts
22-Dec-17 15:56 44.589040 -123.142202 0 22013ft 287kts
22-Dec-17 15:57 44.663766 -123.121930 0 22774ft 292kts
22-Dec-17 15:58 44.740116 -123.101173 0 23285ft 299kts
22-Dec-17 15:59 44.817504 -123.080069 0 23289ft 309kts
22-Dec-17 16:00 44.898875 -123.057788 0 23289ft 313kts
22-Dec-17 16:01 44.980816 -123.035299 0 23288ft 313kts
22-Dec-17 16:02 45.062993 -123.012688 0 23264ft 314kts
22-Dec-17 16:03 45.143305 -122.990518 0 23283ft 313kts
22-Dec-17 16:04 45.225975 -122.970536 349 23291ft 301kts
22-Dec-17 16:05 45.304560 -122.974821 347 23292ft 300kts
22-Dec-17 16:06 45.381325 -122.975916 351 23293ft 304kts
22-Dec-17 16:07 45.459521 -122.973108 352 23292ft 313kts
22-Dec-17 16:08 45.541485 -122.969423 352 23291ft 317kts
22-Dec-17 16:09 45.625003 -122.965365 350 23291ft 315kts
22-Dec-17 16:10 45.708948 -122.961549 349 23290ft 309kts
22-Dec-17 16:11 45.774645 -122.958525 349 23290ft 308kts
22-Dec-17 16:12 45.777074 -122.958412 349 23290ft 308kts
22-Dec-17 16:13 45.817169 -122.956557 349 23289ft 307kts
22-Dec-17 16:14 45.914250 -122.952038 348 23289ft 306kts
22-Dec-17 16:15 45.984219 -122.948767 348 23288ft 306kts
22-Dec-17 16:16 46.081272 -122.944279 348 23287ft 300kts
22-Dec-17 16:17 46.146630 -122.941170 348 23295ft 303kts
22-Dec-17 16:18 46.229777 -122.937233 348 23294ft 304kts
22-Dec-17 16:19 46.313431 -122.933321 349 22400ft 317kts
22-Dec-17 16:20 46.396960 -122.929323 349 21179ft 317kts
22-Dec-17 16:21 46.481706 -122.925265 349 19918ft 310kts
22-Dec-17 16:22 46.565087 -122.921254 349 18641ft 298kts
22-Dec-17 16:23 46.644643 -122.917484 350 17328ft 291kts
22-Dec-17 16:24 46.726535 -122.913580 350 15840ft 302kts
22-Dec-17 16:25 46.810640 -122.909568 353 14443ft 304kts
22-Dec-17 16:26 46.889822 -122.905683 353 12939ft 280kts
22-Dec-17 16:27 46.964175 -122.898850 15 11960ft 282kts
22-Dec-17 16:28 47.027011 -122.829824 32 11955ft 298kts
22-Dec-17 16:29 47.091826 -122.748422 34 11966ft 310kts
22-Dec-17 16:30 47.152137 -122.671423 35 10478ft 297kts
22-Dec-17 16:31 47.207554 -122.589880 70 8707ft 291kts
22-Dec-17 16:32 47.202064 -122.483274 95 7045ft 272kts
22-Dec-17 16:33 47.209943 -122.386501 45 5968ft 235kts
22-Dec-17 16:34 47.248802 -122.325315 45 5222ft 216kts
22-Dec-17 16:35 47.287620 -122.264440 45 3068ft 197kts
22-Dec-17 16:36 47.320398 -122.212468 44 2970ft 178kts
22-Dec-17 16:37 47.365813 -122.190063 13 2969ft 175kts
22-Dec-17 16:38 47.408047 -122.201956 329 2440ft 170kts
22-Dec-17 16:39 47.442731 -122.230082 332 2147ft 159kts
22-Dec-17 16:40 47.477128 -122.257914 331 1041ft 133kts
22-Dec-17 16:41 47.502876 -122.279669 332 434ft 108kts
22-Dec-17 16:42 47.524646 -122.298035 332 20ft 94kts
22-Dec-17 16:43 47.530381 -122.302045 28 17ft 0kts
22-Dec-17 16:44 47.530272 -122.299710 149 18ft 22kts

Navigation Log

Ident Type
Flight plan parsing failed, navigation log unavailable